sensor_id;sensor_type;location;lat;lon;timestamp;P1;durP1;ratioP1;P2;durP2;ratioP2
41623;SDS011;27319;50.306;18.926;2023-04-06T00:01:29;76.57;;;34.70;;
41623;SDS011;27319;50.306;18.926;2023-04-06T00:05:30;75.43;;;34.65;;
41623;SDS011;27319;50.306;18.926;2023-04-06T00:09:30;76.72;;;37.25;;
41623;SDS011;27319;50.306;18.926;2023-04-06T00:13:31;76.18;;;37.35;;
41623;SDS011;27319;50.306;18.926;2023-04-06T00:17:32;72.22;;;34.88;;
41623;SDS011;27319;50.306;18.926;2023-04-06T00:21:33;76.22;;;33.72;;
41623;SDS011;27319;50.306;18.926;2023-04-06T00:25:33;66.10;;;32.47;;
41623;SDS011;27319;50.306;18.926;2023-04-06T00:29:34;78.38;;;32.80;;
41623;SDS011;27319;50.306;18.926;2023-04-06T00:33:35;70.35;;;31.65;;
41623;SDS011;27319;50.306;18.926;2023-04-06T00:37:36;62.35;;;28.67;;
41623;SDS011;27319;50.306;18.926;2023-04-06T00:40:37;63.22;;;29.48;;
41623;SDS011;27319;50.306;18.926;2023-04-06T00:43:40;57.50;;;27.73;;
41623;SDS011;27319;50.306;18.926;2023-04-06T00:46:40;64.10;;;27.05;;
41623;SDS011;27319;50.306;18.926;2023-04-06T00:50:42;52.65;;;25.05;;
41623;SDS011;27319;50.306;18.926;2023-04-06T00:54:42;56.30;;;26.73;;
41623;SDS011;27319;50.306;18.926;2023-04-06T00:58:43;53.85;;;26.38;;
41623;SDS011;27319;50.306;18.926;2023-04-06T01:02:44;50.60;;;22.98;;
41623;SDS011;27319;50.306;18.926;2023-04-06T01:06:45;50.08;;;24.00;;
41623;SDS011;27319;50.306;18.926;2023-04-06T01:10:46;51.85;;;24.30;;
41623;SDS011;27319;50.306;18.926;2023-04-06T01:14:46;44.75;;;24.00;;
41623;SDS011;27319;50.306;18.926;2023-04-06T01:18:47;49.60;;;22.85;;
41623;SDS011;27319;50.306;18.926;2023-04-06T01:22:51;47.20;;;24.70;;
41623;SDS011;27319;50.306;18.926;2023-04-06T01:26:52;46.65;;;23.60;;
41623;SDS011;27319;50.306;18.926;2023-04-06T01:30:53;47.30;;;24.88;;
41623;SDS011;27319;50.306;18.926;2023-04-06T01:34:53;45.80;;;24.88;;
41623;SDS011;27319;50.306;18.926;2023-04-06T01:37:55;47.55;;;25.10;;
41623;SDS011;27319;50.306;18.926;2023-04-06T01:40:56;52.30;;;25.80;;
41623;SDS011;27319;50.306;18.926;2023-04-06T01:44:57;42.47;;;22.05;;
41623;SDS011;27319;50.306;18.926;2023-04-06T01:48:57;51.03;;;24.75;;
41623;SDS011;27319;50.306;18.926;2023-04-06T01:52:58;49.08;;;23.80;;
41623;SDS011;27319;50.306;18.926;2023-04-06T01:56:59;47.25;;;23.35;;
41623;SDS011;27319;50.306;18.926;2023-04-06T02:01:00;43.10;;;23.77;;
41623;SDS011;27319;50.306;18.926;2023-04-06T02:05:01;48.75;;;22.13;;
41623;SDS011;27319;50.306;18.926;2023-04-06T02:09:02;44.20;;;22.45;;
41623;SDS011;27319;50.306;18.926;2023-04-06T02:13:03;44.13;;;21.02;;
41623;SDS011;27319;50.306;18.926;2023-04-06T02:17:04;45.42;;;20.65;;
41623;SDS011;27319;50.306;18.926;2023-04-06T02:21:04;45.70;;;20.58;;
41623;SDS011;27319;50.306;18.926;2023-04-06T02:25:05;42.90;;;20.10;;
41623;SDS011;27319;50.306;18.926;2023-04-06T02:29:06;35.85;;;17.98;;
41623;SDS011;27319;50.306;18.926;2023-04-06T02:33:07;40.25;;;18.30;;
41623;SDS011;27319;50.306;18.926;2023-04-06T02:37:08;36.45;;;17.92;;
41623;SDS011;27319;50.306;18.926;2023-04-06T02:41:09;41.47;;;19.67;;
41623;SDS011;27319;50.306;18.926;2023-04-06T02:45:09;41.92;;;20.90;;
41623;SDS011;27319;50.306;18.926;2023-04-06T02:49:10;38.25;;;19.60;;
41623;SDS011;27319;50.306;18.926;2023-04-06T02:53:11;42.55;;;23.05;;
41623;SDS011;27319;50.306;18.926;2023-04-06T02:57:12;39.88;;;20.83;;
41623;SDS011;27319;50.306;18.926;2023-04-06T03:01:13;43.00;;;21.98;;
41623;SDS011;27319;50.306;18.926;2023-04-06T03:05:14;46.25;;;22.33;;
41623;SDS011;27319;50.306;18.926;2023-04-06T03:09:15;42.53;;;20.10;;
41623;SDS011;27319;50.306;18.926;2023-04-06T03:13:16;44.15;;;20.35;;
41623;SDS011;27319;50.306;18.926;2023-04-06T03:17:16;44.72;;;21.58;;
41623;SDS011;27319;50.306;18.926;2023-04-06T03:21:17;45.78;;;21.38;;
41623;SDS011;27319;50.306;18.926;2023-04-06T03:25:18;44.85;;;20.40;;
41623;SDS011;27319;50.306;18.926;2023-04-06T03:29:19;43.65;;;21.48;;
41623;SDS011;27319;50.306;18.926;2023-04-06T03:33:20;42.75;;;20.85;;
41623;SDS011;27319;50.306;18.926;2023-04-06T03:37:21;45.60;;;21.00;;
41623;SDS011;27319;50.306;18.926;2023-04-06T03:41:21;40.45;;;21.92;;
41623;SDS011;27319;50.306;18.926;2023-04-06T03:45:22;43.05;;;21.55;;
41623;SDS011;27319;50.306;18.926;2023-04-06T03:49:23;48.75;;;25.15;;
41623;SDS011;27319;50.306;18.926;2023-04-06T03:53:24;59.10;;;29.52;;
41623;SDS011;27319;50.306;18.926;2023-04-06T03:57:25;69.60;;;34.00;;
41623;SDS011;27319;50.306;18.926;2023-04-06T04:01:26;75.95;;;40.35;;
41623;SDS011;27319;50.306;18.926;2023-04-06T04:05:26;76.38;;;38.97;;
41623;SDS011;27319;50.306;18.926;2023-04-06T04:09:27;67.90;;;36.60;;
41623;SDS011;27319;50.306;18.926;2023-04-06T04:13:04;70.25;;;34.17;;
41623;SDS011;27319;50.306;18.926;2023-04-06T04:16:05;57.95;;;30.63;;
41623;SDS011;27319;50.306;18.926;2023-04-06T04:20:06;57.13;;;29.08;;
41623;SDS011;27319;50.306;18.926;2023-04-06T04:24:07;62.08;;;28.95;;
41623;SDS011;27319;50.306;18.926;2023-04-06T04:28:07;56.13;;;29.08;;
41623;SDS011;27319;50.306;18.926;2023-04-06T04:32:08;55.25;;;27.48;;
41623;SDS011;27319;50.306;18.926;2023-04-06T04:36:09;50.72;;;25.48;;
41623;SDS011;27319;50.306;18.926;2023-04-06T04:40:10;51.53;;;25.25;;
41623;SDS011;27319;50.306;18.926;2023-04-06T04:44:11;55.55;;;26.05;;
41623;SDS011;27319;50.306;18.926;2023-04-06T04:48:12;54.95;;;25.42;;
41623;SDS011;27319;50.306;18.926;2023-04-06T04:52:13;61.50;;;25.70;;
41623;SDS011;27319;50.306;18.926;2023-04-06T04:56:14;54.33;;;27.42;;
41623;SDS011;27319;50.306;18.926;2023-04-06T05:00:14;55.80;;;27.40;;
41623;SDS011;27319;50.306;18.926;2023-04-06T05:04:15;55.10;;;27.42;;
41623;SDS011;27319;50.306;18.926;2023-04-06T05:08:16;65.93;;;28.73;;
41623;SDS011;27319;50.306;18.926;2023-04-06T05:12:18;61.65;;;28.85;;
41623;SDS011;27319;50.306;18.926;2023-04-06T05:16:18;58.08;;;28.02;;
41623;SDS011;27319;50.306;18.926;2023-04-06T05:20:19;60.47;;;29.58;;
41623;SDS011;27319;50.306;18.926;2023-04-06T05:24:20;55.38;;;27.30;;
41623;SDS011;27319;50.306;18.926;2023-04-06T05:28:20;70.72;;;30.13;;
41623;SDS011;27319;50.306;18.926;2023-04-06T05:32:21;53.90;;;25.67;;
41623;SDS011;27319;50.306;18.926;2023-04-06T05:36:22;60.38;;;26.38;;
41623;SDS011;27319;50.306;18.926;2023-04-06T05:40:23;53.28;;;23.83;;
41623;SDS011;27319;50.306;18.926;2023-04-06T05:44:24;57.10;;;25.40;;
41623;SDS011;27319;50.306;18.926;2023-04-06T05:48:25;60.08;;;28.52;;
41623;SDS011;27319;50.306;18.926;2023-04-06T05:52:25;52.28;;;26.63;;
41623;SDS011;27319;50.306;18.926;2023-04-06T05:56:26;55.90;;;24.63;;
41623;SDS011;27319;50.306;18.926;2023-04-06T05:59:30;51.63;;;25.65;;
41623;SDS011;27319;50.306;18.926;2023-04-06T06:03:31;53.40;;;25.17;;
41623;SDS011;27319;50.306;18.926;2023-04-06T06:06:32;52.30;;;26.27;;
41623;SDS011;27319;50.306;18.926;2023-04-06T06:09:33;61.03;;;25.33;;
41623;SDS011;27319;50.306;18.926;2023-04-06T06:13:34;57.05;;;27.58;;
41623;SDS011;27319;50.306;18.926;2023-04-06T06:17:35;52.25;;;24.60;;
41623;SDS011;27319;50.306;18.926;2023-04-06T06:21:36;41.70;;;21.33;;
41623;SDS011;27319;50.306;18.926;2023-04-06T06:25:36;39.08;;;20.88;;
41623;SDS011;27319;50.306;18.926;2023-04-06T06:29:40;32.28;;;17.50;;
41623;SDS011;27319;50.306;18.926;2023-04-06T06:33:40;25.92;;;14.05;;
41623;SDS011;27319;50.306;18.926;2023-04-06T06:37:41;29.25;;;14.63;;
41623;SDS011;27319;50.306;18.926;2023-04-06T06:40:46;28.52;;;15.98;;
41623;SDS011;27319;50.306;18.926;2023-04-06T06:43:47;30.83;;;16.35;;
41623;SDS011;27319;50.306;18.926;2023-04-06T06:47:48;24.05;;;13.63;;
41623;SDS011;27319;50.306;18.926;2023-04-06T06:51:49;31.98;;;16.30;;
41623;SDS011;27319;50.306;18.926;2023-04-06T06:55:50;31.80;;;15.65;;
41623;SDS011;27319;50.306;18.926;2023-04-06T06:59:51;24.00;;;12.98;;
41623;SDS011;27319;50.306;18.926;2023-04-06T07:03:52;21.92;;;10.45;;
41623;SDS011;27319;50.306;18.926;2023-04-06T07:07:53;16.52;;;8.85;;
41623;SDS011;27319;50.306;18.926;2023-04-06T07:11:53;21.67;;;10.32;;
41623;SDS011;27319;50.306;18.926;2023-04-06T07:15:54;27.73;;;10.52;;
41623;SDS011;27319;50.306;18.926;2023-04-06T07:19:55;20.98;;;9.32;;
41623;SDS011;27319;50.306;18.926;2023-04-06T07:23:56;21.27;;;9.55;;
41623;SDS011;27319;50.306;18.926;2023-04-06T07:27:57;18.58;;;10.88;;
41623;SDS011;27319;50.306;18.926;2023-04-06T07:31:58;14.48;;;8.05;;
41623;SDS011;27319;50.306;18.926;2023-04-06T07:35:58;16.92;;;7.60;;
41623;SDS011;27319;50.306;18.926;2023-04-06T07:39:59;16.52;;;9.32;;
41623;SDS011;27319;50.306;18.926;2023-04-06T07:44:00;19.73;;;10.15;;
41623;SDS011;27319;50.306;18.926;2023-04-06T07:48:01;16.77;;;9.50;;
41623;SDS011;27319;50.306;18.926;2023-04-06T07:52:02;18.63;;;10.05;;
41623;SDS011;27319;50.306;18.926;2023-04-06T07:56:03;23.13;;;10.80;;
41623;SDS011;27319;50.306;18.926;2023-04-06T08:00:04;18.67;;;9.38;;
41623;SDS011;27319;50.306;18.926;2023-04-06T08:04:04;18.98;;;9.73;;
41623;SDS011;27319;50.306;18.926;2023-04-06T08:08:05;14.52;;;8.38;;
41623;SDS011;27319;50.306;18.926;2023-04-06T08:12:06;15.48;;;8.27;;
41623;SDS011;27319;50.306;18.926;2023-04-06T08:16:07;15.52;;;9.52;;
41623;SDS011;27319;50.306;18.926;2023-04-06T08:20:08;16.80;;;9.30;;
41623;SDS011;27319;50.306;18.926;2023-04-06T08:24:09;18.48;;;10.30;;
41623;SDS011;27319;50.306;18.926;2023-04-06T08:28:09;17.42;;;9.73;;
41623;SDS011;27319;50.306;18.926;2023-04-06T08:32:10;19.25;;;9.10;;
41623;SDS011;27319;50.306;18.926;2023-04-06T08:36:12;12.13;;;8.02;;
41623;SDS011;27319;50.306;18.926;2023-04-06T08:40:12;19.88;;;8.65;;
41623;SDS011;27319;50.306;18.926;2023-04-06T08:44:16;12.90;;;8.50;;
41623;SDS011;27319;50.306;18.926;2023-04-06T08:48:16;15.25;;;8.43;;
41623;SDS011;27319;50.306;18.926;2023-04-06T08:52:18;15.43;;;8.73;;
41623;SDS011;27319;50.306;18.926;2023-04-06T08:56:18;18.38;;;8.85;;
41623;SDS011;27319;50.306;18.926;2023-04-06T09:00:19;15.77;;;9.13;;
41623;SDS011;27319;50.306;18.926;2023-04-06T09:04:20;26.48;;;12.48;;
41623;SDS011;27319;50.306;18.926;2023-04-06T09:08:21;15.13;;;9.65;;
41623;SDS011;27319;50.306;18.926;2023-04-06T09:12:28;25.02;;;13.48;;
41623;SDS011;27319;50.306;18.926;2023-04-06T09:16:38;14.00;;;9.20;;
41623;SDS011;27319;50.306;18.926;2023-04-06T09:20:29;18.38;;;10.25;;
41623;SDS011;27319;50.306;18.926;2023-04-06T09:24:46;17.45;;;10.38;;
41623;SDS011;27319;50.306;18.926;2023-04-06T09:28:50;17.60;;;10.05;;
41623;SDS011;27319;50.306;18.926;2023-04-06T09:32:53;19.60;;;11.30;;
41623;SDS011;27319;50.306;18.926;2023-04-06T09:36:50;16.75;;;9.95;;
41623;SDS011;27319;50.306;18.926;2023-04-06T09:40:34;16.92;;;10.15;;
41623;SDS011;27319;50.306;18.926;2023-04-06T09:44:34;20.10;;;10.45;;
41623;SDS011;27319;50.306;18.926;2023-04-06T09:48:35;21.52;;;10.82;;
41623;SDS011;27319;50.306;18.926;2023-04-06T10:00:47;14.25;;;8.95;;
41623;SDS011;27319;50.306;18.926;2023-04-06T10:04:53;16.67;;;8.60;;
41623;SDS011;27319;50.306;18.926;2023-04-06T10:12:38;23.38;;;11.75;;
41623;SDS011;27319;50.306;18.926;2023-04-06T10:16:39;18.50;;;10.15;;
41623;SDS011;27319;50.306;18.926;2023-04-06T10:20:48;17.58;;;8.35;;
41623;SDS011;27319;50.306;18.926;2023-04-06T10:23:55;13.25;;;8.35;;
41623;SDS011;27319;50.306;18.926;2023-04-06T10:28:01;13.52;;;7.88;;
41623;SDS011;27319;50.306;18.926;2023-04-06T10:32:01;14.80;;;8.18;;
41623;SDS011;27319;50.306;18.926;2023-04-06T10:35:06;19.20;;;8.18;;
41623;SDS011;27319;50.306;18.926;2023-04-06T10:38:10;16.58;;;8.60;;
41623;SDS011;27319;50.306;18.926;2023-04-06T10:41:16;13.75;;;8.45;;
41623;SDS011;27319;50.306;18.926;2023-04-06T10:45:24;13.13;;;8.52;;
41623;SDS011;27319;50.306;18.926;2023-04-06T10:49:25;13.32;;;8.35;;
41623;SDS011;27319;50.306;18.926;2023-04-06T10:53:26;12.90;;;8.65;;
41623;SDS011;27319;50.306;18.926;2023-04-06T10:57:29;15.43;;;9.43;;
41623;SDS011;27319;50.306;18.926;2023-04-06T11:01:30;11.60;;;7.88;;
41623;SDS011;27319;50.306;18.926;2023-04-06T11:05:31;15.90;;;6.53;;
41623;SDS011;27319;50.306;18.926;2023-04-06T11:09:31;11.10;;;6.93;;
41623;SDS011;27319;50.306;18.926;2023-04-06T11:13:43;12.18;;;6.65;;
41623;SDS011;27319;50.306;18.926;2023-04-06T11:17:39;13.05;;;7.15;;
41623;SDS011;27319;50.306;18.926;2023-04-06T11:21:44;10.57;;;6.85;;
41623;SDS011;27319;50.306;18.926;2023-04-06T11:25:51;15.20;;;7.05;;
41623;SDS011;27319;50.306;18.926;2023-04-06T11:29:50;14.32;;;7.05;;
41623;SDS011;27319;50.306;18.926;2023-04-06T11:33:57;13.68;;;7.18;;
41623;SDS011;27319;50.306;18.926;2023-04-06T11:38:02;7.85;;;5.30;;
41623;SDS011;27319;50.306;18.926;2023-04-06T11:41:04;11.27;;;6.75;;
41623;SDS011;27319;50.306;18.926;2023-04-06T11:45:06;12.65;;;5.72;;
41623;SDS011;27319;50.306;18.926;2023-04-06T11:49:06;12.20;;;6.45;;
41623;SDS011;27319;50.306;18.926;2023-04-06T11:53:06;12.43;;;6.00;;
41623;SDS011;27319;50.306;18.926;2023-04-06T11:57:07;12.15;;;6.20;;
41623;SDS011;27319;50.306;18.926;2023-04-06T12:01:08;13.40;;;7.00;;
41623;SDS011;27319;50.306;18.926;2023-04-06T12:05:09;15.05;;;7.10;;
41623;SDS011;27319;50.306;18.926;2023-04-06T12:09:10;10.32;;;6.03;;
41623;SDS011;27319;50.306;18.926;2023-04-06T12:13:10;10.80;;;6.88;;
41623;SDS011;27319;50.306;18.926;2023-04-06T12:17:11;12.02;;;7.18;;
41623;SDS011;27319;50.306;18.926;2023-04-06T12:21:12;9.40;;;6.20;;
41623;SDS011;27319;50.306;18.926;2023-04-06T12:25:13;11.77;;;6.50;;
41623;SDS011;27319;50.306;18.926;2023-04-06T12:29:14;9.18;;;5.78;;
41623;SDS011;27319;50.306;18.926;2023-04-06T12:33:15;12.18;;;6.15;;
41623;SDS011;27319;50.306;18.926;2023-04-06T12:37:16;10.00;;;6.00;;
41623;SDS011;27319;50.306;18.926;2023-04-06T12:41:17;11.68;;;6.50;;
41623;SDS011;27319;50.306;18.926;2023-04-06T12:45:17;9.82;;;6.03;;
41623;SDS011;27319;50.306;18.926;2023-04-06T12:49:18;11.38;;;6.07;;
41623;SDS011;27319;50.306;18.926;2023-04-06T12:53:19;10.27;;;6.25;;
41623;SDS011;27319;50.306;18.926;2023-04-06T12:57:20;10.35;;;6.05;;
41623;SDS011;27319;50.306;18.926;2023-04-06T13:01:21;11.52;;;6.88;;
41623;SDS011;27319;50.306;18.926;2023-04-06T13:05:22;11.25;;;6.45;;
41623;SDS011;27319;50.306;18.926;2023-04-06T13:09:25;12.05;;;6.80;;
41623;SDS011;27319;50.306;18.926;2023-04-06T13:13:27;13.52;;;7.70;;
41623;SDS011;27319;50.306;18.926;2023-04-06T13:17:27;15.77;;;8.82;;
41623;SDS011;27319;50.306;18.926;2023-04-06T13:21:28;14.80;;;9.70;;
41623;SDS011;27319;50.306;18.926;2023-04-06T13:25:29;15.43;;;9.07;;
41623;SDS011;27319;50.306;18.926;2023-04-06T13:29:42;19.45;;;11.13;;
41623;SDS011;27319;50.306;18.926;2023-04-06T13:33:42;16.73;;;10.60;;
41623;SDS011;27319;50.306;18.926;2023-04-06T13:37:43;17.33;;;10.88;;
41623;SDS011;27319;50.306;18.926;2023-04-06T13:41:47;20.92;;;11.23;;
41623;SDS011;27319;50.306;18.926;2023-04-06T13:45:48;19.95;;;11.55;;
41623;SDS011;27319;50.306;18.926;2023-04-06T13:49:52;18.00;;;11.10;;
41623;SDS011;27319;50.306;18.926;2023-04-06T13:53:52;16.85;;;10.10;;
41623;SDS011;27319;50.306;18.926;2023-04-06T13:57:53;18.50;;;10.38;;
41623;SDS011;27319;50.306;18.926;2023-04-06T14:01:54;16.70;;;9.82;;
41623;SDS011;27319;50.306;18.926;2023-04-06T14:05:55;15.52;;;9.25;;
41623;SDS011;27319;50.306;18.926;2023-04-06T14:09:56;15.90;;;10.23;;
41623;SDS011;27319;50.306;18.926;2023-04-06T14:13:57;20.25;;;10.10;;
41623;SDS011;27319;50.306;18.926;2023-04-06T14:16:57;14.38;;;10.20;;
41623;SDS011;27319;50.306;18.926;2023-04-06T14:20:58;17.40;;;10.50;;
41623;SDS011;27319;50.306;18.926;2023-04-06T14:23:59;15.13;;;9.98;;
41623;SDS011;27319;50.306;18.926;2023-04-06T14:27:00;16.77;;;10.07;;
41623;SDS011;27319;50.306;18.926;2023-04-06T14:31:02;15.05;;;10.18;;
41623;SDS011;27319;50.306;18.926;2023-04-06T14:35:02;21.70;;;13.38;;
41623;SDS011;27319;50.306;18.926;2023-04-06T14:39:06;24.88;;;13.63;;
41623;SDS011;27319;50.306;18.926;2023-04-06T14:42:39;25.80;;;15.65;;
41623;SDS011;27319;50.306;18.926;2023-04-06T14:46:00;21.75;;;13.27;;
41623;SDS011;27319;50.306;18.926;2023-04-06T14:50:00;22.27;;;11.52;;
41623;SDS011;27319;50.306;18.926;2023-04-06T14:54:01;22.35;;;12.10;;
41623;SDS011;27319;50.306;18.926;2023-04-06T14:57:03;21.90;;;11.98;;
41623;SDS011;27319;50.306;18.926;2023-04-06T15:01:04;16.48;;;10.20;;
41623;SDS011;27319;50.306;18.926;2023-04-06T15:05:05;17.63;;;11.63;;
41623;SDS011;27319;50.306;18.926;2023-04-06T15:09:05;26.02;;;13.60;;
41623;SDS011;27319;50.306;18.926;2023-04-06T15:13:06;20.70;;;11.55;;
41623;SDS011;27319;50.306;18.926;2023-04-06T15:17:07;21.77;;;12.13;;
41623;SDS011;27319;50.306;18.926;2023-04-06T15:21:08;19.98;;;11.43;;
41623;SDS011;27319;50.306;18.926;2023-04-06T15:25:04;19.50;;;10.80;;
41623;SDS011;27319;50.306;18.926;2023-04-06T15:29:05;19.60;;;12.20;;
41623;SDS011;27319;50.306;18.926;2023-04-06T15:32:43;17.25;;;12.48;;
41623;SDS011;27319;50.306;18.926;2023-04-06T15:36:26;25.13;;;15.93;;
41623;SDS011;27319;50.306;18.926;2023-04-06T15:40:06;24.52;;;15.00;;
41623;SDS011;27319;50.306;18.926;2023-04-06T15:43:07;30.75;;;15.65;;
41623;SDS011;27319;50.306;18.926;2023-04-06T15:47:08;25.95;;;15.48;;
41623;SDS011;27319;50.306;18.926;2023-04-06T15:50:09;33.40;;;18.38;;
41623;SDS011;27319;50.306;18.926;2023-04-06T15:54:10;21.02;;;13.27;;
41623;SDS011;27319;50.306;18.926;2023-04-06T15:57:12;23.17;;;13.98;;
41623;SDS011;27319;50.306;18.926;2023-04-06T16:00:14;21.40;;;12.60;;
41623;SDS011;27319;50.306;18.926;2023-04-06T16:03:15;21.88;;;12.02;;
41623;SDS011;27319;50.306;18.926;2023-04-06T16:06:36;19.17;;;10.75;;
41623;SDS011;27319;50.306;18.926;2023-04-06T16:09:37;26.20;;;10.90;;
41623;SDS011;27319;50.306;18.926;2023-04-06T16:12:58;19.17;;;10.52;;
41623;SDS011;27319;50.306;18.926;2023-04-06T16:16:59;18.73;;;11.23;;
41623;SDS011;27319;50.306;18.926;2023-04-06T16:20:16;21.42;;;12.00;;
41623;SDS011;27319;50.306;18.926;2023-04-06T16:24:17;20.45;;;11.88;;
41623;SDS011;27319;50.306;18.926;2023-04-06T16:28:17;23.45;;;14.35;;
41623;SDS011;27319;50.306;18.926;2023-04-06T16:32:18;21.00;;;13.50;;
41623;SDS011;27319;50.306;18.926;2023-04-06T16:36:07;22.55;;;13.30;;
41623;SDS011;27319;50.306;18.926;2023-04-06T16:39:08;17.65;;;11.43;;
41623;SDS011;27319;50.306;18.926;2023-04-06T16:42:36;15.95;;;10.15;;
41623;SDS011;27319;50.306;18.926;2023-04-06T16:46:37;17.10;;;11.10;;
41623;SDS011;27319;50.306;18.926;2023-04-06T16:50:38;23.70;;;13.05;;
41623;SDS011;27319;50.306;18.926;2023-04-06T16:54:39;26.23;;;13.45;;
41623;SDS011;27319;50.306;18.926;2023-04-06T16:58:40;21.90;;;12.18;;
41623;SDS011;27319;50.306;18.926;2023-04-06T17:02:40;23.30;;;13.60;;
41623;SDS011;27319;50.306;18.926;2023-04-06T17:06:41;37.38;;;25.83;;
41623;SDS011;27319;50.306;18.926;2023-04-06T17:10:42;30.23;;;18.45;;
41623;SDS011;27319;50.306;18.926;2023-04-06T17:14:43;22.52;;;14.60;;
41623;SDS011;27319;50.306;18.926;2023-04-06T17:18:44;26.80;;;15.98;;
41623;SDS011;27319;50.306;18.926;2023-04-06T17:22:45;25.63;;;15.27;;
41623;SDS011;27319;50.306;18.926;2023-04-06T17:26:46;23.25;;;13.63;;
41623;SDS011;27319;50.306;18.926;2023-04-06T17:30:46;22.67;;;14.65;;
41623;SDS011;27319;50.306;18.926;2023-04-06T17:34:47;24.17;;;15.10;;
41623;SDS011;27319;50.306;18.926;2023-04-06T17:38:48;25.15;;;14.82;;
41623;SDS011;27319;50.306;18.926;2023-04-06T17:42:37;25.48;;;15.32;;
41623;SDS011;27319;50.306;18.926;2023-04-06T17:45:37;27.00;;;19.05;;
41623;SDS011;27319;50.306;18.926;2023-04-06T17:48:38;27.27;;;16.02;;
41623;SDS011;27319;50.306;18.926;2023-04-06T17:52:39;31.73;;;19.60;;
41623;SDS011;27319;50.306;18.926;2023-04-06T17:56:40;27.35;;;17.17;;
41623;SDS011;27319;50.306;18.926;2023-04-06T18:00:41;33.45;;;20.42;;
41623;SDS011;27319;50.306;18.926;2023-04-06T18:04:45;36.00;;;20.08;;
41623;SDS011;27319;50.306;18.926;2023-04-06T18:08:46;30.35;;;19.80;;
41623;SDS011;27319;50.306;18.926;2023-04-06T18:12:47;34.17;;;18.63;;
41623;SDS011;27319;50.306;18.926;2023-04-06T18:15:48;35.35;;;23.20;;
41623;SDS011;27319;50.306;18.926;2023-04-06T18:19:49;31.30;;;18.05;;
41623;SDS011;27319;50.306;18.926;2023-04-06T18:23:50;36.75;;;19.92;;
41623;SDS011;27319;50.306;18.926;2023-04-06T18:27:51;27.60;;;15.70;;
41623;SDS011;27319;50.306;18.926;2023-04-06T18:31:52;35.00;;;20.55;;
41623;SDS011;27319;50.306;18.926;2023-04-06T18:35:55;40.20;;;20.45;;
41623;SDS011;27319;50.306;18.926;2023-04-06T18:39:56;35.70;;;20.23;;
41623;SDS011;27319;50.306;18.926;2023-04-06T18:42:57;30.60;;;18.25;;
41623;SDS011;27319;50.306;18.926;2023-04-06T18:45:59;37.63;;;23.20;;
41623;SDS011;27319;50.306;18.926;2023-04-06T18:49:59;36.05;;;23.95;;
41623;SDS011;27319;50.306;18.926;2023-04-06T18:54:00;43.25;;;25.85;;
41623;SDS011;27319;50.306;18.926;2023-04-06T18:58:01;40.30;;;25.15;;
41623;SDS011;27319;50.306;18.926;2023-04-06T19:02:02;31.58;;;21.63;;
41623;SDS011;27319;50.306;18.926;2023-04-06T19:06:03;27.88;;;18.80;;
41623;SDS011;27319;50.306;18.926;2023-04-06T19:10:04;29.90;;;19.02;;
41623;SDS011;27319;50.306;18.926;2023-04-06T19:14:05;35.63;;;21.42;;
41623;SDS011;27319;50.306;18.926;2023-04-06T19:18:06;34.05;;;22.23;;
41623;SDS011;27319;50.306;18.926;2023-04-06T19:22:09;35.53;;;20.30;;
41623;SDS011;27319;50.306;18.926;2023-04-06T19:25:11;35.85;;;22.70;;
41623;SDS011;27319;50.306;18.926;2023-04-06T19:29:11;46.88;;;26.30;;
41623;SDS011;27319;50.306;18.926;2023-04-06T19:32:16;34.67;;;23.52;;
41623;SDS011;27319;50.306;18.926;2023-04-06T19:35:17;39.72;;;23.08;;
41623;SDS011;27319;50.306;18.926;2023-04-06T19:38:19;36.03;;;24.45;;
41623;SDS011;27319;50.306;18.926;2023-04-06T19:41:20;33.92;;;21.85;;
41623;SDS011;27319;50.306;18.926;2023-04-06T19:45:21;42.13;;;25.20;;
41623;SDS011;27319;50.306;18.926;2023-04-06T19:49:21;40.15;;;25.42;;
41623;SDS011;27319;50.306;18.926;2023-04-06T19:53:22;40.88;;;22.67;;
41623;SDS011;27319;50.306;18.926;2023-04-06T19:57:23;56.53;;;30.23;;
41623;SDS011;27319;50.306;18.926;2023-04-06T20:01:24;52.58;;;27.45;;
41623;SDS011;27319;50.306;18.926;2023-04-06T20:05:25;46.90;;;23.98;;
41623;SDS011;27319;50.306;18.926;2023-04-06T20:09:26;39.08;;;23.67;;
41623;SDS011;27319;50.306;18.926;2023-04-06T20:13:26;39.78;;;24.45;;
41623;SDS011;27319;50.306;18.926;2023-04-06T20:17:02;34.20;;;22.08;;
41623;SDS011;27319;50.306;18.926;2023-04-06T20:21:03;30.77;;;19.10;;
41623;SDS011;27319;50.306;18.926;2023-04-06T20:25:04;33.80;;;19.75;;
41623;SDS011;27319;50.306;18.926;2023-04-06T20:28:32;32.50;;;19.90;;
41623;SDS011;27319;50.306;18.926;2023-04-06T20:32:33;39.65;;;25.80;;
41623;SDS011;27319;50.306;18.926;2023-04-06T20:36:34;39.30;;;23.88;;
41623;SDS011;27319;50.306;18.926;2023-04-06T20:39:34;40.63;;;24.60;;
41623;SDS011;27319;50.306;18.926;2023-04-06T20:42:36;39.10;;;23.42;;
41623;SDS011;27319;50.306;18.926;2023-04-06T20:46:36;36.65;;;22.30;;
41623;SDS011;27319;50.306;18.926;2023-04-06T20:50:37;41.85;;;24.25;;
41623;SDS011;27319;50.306;18.926;2023-04-06T20:54:38;48.72;;;27.50;;
41623;SDS011;27319;50.306;18.926;2023-04-06T20:58:39;54.35;;;29.83;;
41623;SDS011;27319;50.306;18.926;2023-04-06T21:02:40;56.85;;;29.50;;
41623;SDS011;27319;50.306;18.926;2023-04-06T21:06:40;52.63;;;30.80;;
41623;SDS011;27319;50.306;18.926;2023-04-06T21:10:44;53.25;;;30.35;;
41623;SDS011;27319;50.306;18.926;2023-04-06T21:14:45;62.70;;;35.95;;
41623;SDS011;27319;50.306;18.926;2023-04-06T21:18:46;58.17;;;34.28;;
41623;SDS011;27319;50.306;18.926;2023-04-06T21:22:49;60.90;;;34.85;;
41623;SDS011;27319;50.306;18.926;2023-04-06T21:26:50;70.80;;;37.72;;
41623;SDS011;27319;50.306;18.926;2023-04-06T21:30:53;59.50;;;34.35;;
41623;SDS011;27319;50.306;18.926;2023-04-06T21:34:51;57.28;;;33.38;;
41623;SDS011;27319;50.306;18.926;2023-04-06T21:38:52;62.28;;;34.65;;
41623;SDS011;27319;50.306;18.926;2023-04-06T21:42:36;65.20;;;35.13;;
41623;SDS011;27319;50.306;18.926;2023-04-06T21:45:37;57.25;;;32.67;;
41623;SDS011;27319;50.306;18.926;2023-04-06T21:49:38;53.50;;;31.50;;
41623;SDS011;27319;50.306;18.926;2023-04-06T21:53:39;53.05;;;29.40;;
41623;SDS011;27319;50.306;18.926;2023-04-06T21:57:40;48.10;;;29.48;;
41623;SDS011;27319;50.306;18.926;2023-04-06T22:01:41;46.72;;;29.65;;
41623;SDS011;27319;50.306;18.926;2023-04-06T22:05:41;43.85;;;26.63;;
41623;SDS011;27319;50.306;18.926;2023-04-06T22:09:42;46.97;;;27.88;;
41623;SDS011;27319;50.306;18.926;2023-04-06T22:13:43;43.53;;;25.70;;
41623;SDS011;27319;50.306;18.926;2023-04-06T22:17:44;45.50;;;28.17;;
41623;SDS011;27319;50.306;18.926;2023-04-06T22:21:45;44.47;;;25.95;;
41623;SDS011;27319;50.306;18.926;2023-04-06T22:25:46;49.53;;;29.50;;
41623;SDS011;27319;50.306;18.926;2023-04-06T22:29:46;39.80;;;24.60;;
41623;SDS011;27319;50.306;18.926;2023-04-06T22:33:47;39.85;;;24.90;;
41623;SDS011;27319;50.306;18.926;2023-04-06T22:37:48;46.45;;;28.33;;